createdAt,value
2024-02-08T00:01:44.763Z,100.00
2024-02-08T00:04:11.740Z,100.00
2024-02-08T00:06:38.741Z,100.00
2024-02-08T00:09:07.390Z,100.00
2024-02-08T00:11:34.338Z,100.00
2024-02-08T00:14:01.399Z,100.00
2024-02-08T00:16:28.588Z,100.00
2024-02-08T00:18:56.982Z,100.00
2024-02-08T00:21:24.121Z,100.00
2024-02-08T00:23:53.869Z,100.00
2024-02-08T00:26:21.496Z,100.00
2024-02-08T00:28:48.638Z,100.00
2024-02-08T00:31:15.602Z,100.00
2024-02-08T00:33:42.636Z,100.00
2024-02-08T00:36:11.249Z,100.00
2024-02-08T00:38:38.870Z,100.00
2024-02-08T00:41:05.940Z,100.00
2024-02-08T00:43:32.904Z,100.00
2024-02-08T00:45:59.921Z,100.00
2024-02-08T00:48:26.883Z,100.00
2024-02-08T00:50:54.453Z,100.00
2024-02-08T00:53:21.372Z,100.00
2024-02-08T00:55:48.758Z,100.00
2024-02-08T00:58:17.206Z,100.00
2024-02-08T01:00:44.412Z,100.00
2024-02-08T01:03:11.591Z,100.00
2024-02-08T01:05:38.796Z,100.00
2024-02-08T01:08:06.315Z,100.00
2024-02-08T01:10:33.502Z,100.00
2024-02-08T01:13:00.569Z,100.00
2024-02-08T01:15:28.000Z,100.00
2024-02-08T01:17:55.031Z,100.00
2024-02-08T01:20:24.326Z,100.00
2024-02-08T01:22:51.694Z,100.00
2024-02-08T01:25:18.679Z,100.00
2024-02-08T01:27:45.650Z,100.00
2024-02-08T01:30:14.521Z,100.00
2024-02-08T01:32:42.052Z,100.00
2024-02-08T01:35:12.333Z,100.00
2024-02-08T01:37:39.918Z,100.00
2024-02-08T01:40:17.669Z,100.00
2024-02-08T01:42:44.959Z,100.00
2024-02-08T01:45:39.015Z,100.00
2024-02-08T01:48:13.764Z,100.00
2024-02-08T01:50:52.018Z,100.00
2024-02-08T01:53:22.214Z,100.00
2024-02-08T01:55:52.361Z,100.00
2024-02-08T01:58:19.383Z,100.00
2024-02-08T02:00:50.490Z,100.00
2024-02-08T02:03:18.030Z,100.00
2024-02-08T02:05:48.140Z,100.00
2024-02-08T02:08:23.221Z,100.00
2024-02-08T02:11:01.734Z,100.00
2024-02-08T02:13:28.685Z,100.00
2024-02-08T02:15:55.608Z,100.00
2024-02-08T02:18:22.532Z,100.00
2024-02-08T02:20:49.430Z,100.00
2024-02-08T02:23:19.928Z,100.00
2024-02-08T02:25:49.559Z,100.00
2024-02-08T02:28:16.567Z,100.00
2024-02-08T02:30:46.093Z,100.00
2024-02-08T02:33:16.073Z,100.00
2024-02-08T02:35:49.348Z,100.00
2024-02-08T02:38:20.014Z,100.00
2024-02-08T02:40:50.210Z,100.00
2024-02-08T02:43:17.150Z,100.00
2024-02-08T02:45:43.972Z,100.00
2024-02-08T02:48:11.115Z,100.00
2024-02-08T02:50:43.515Z,100.00
2024-02-08T02:53:11.101Z,100.00
2024-02-08T02:55:38.761Z,100.00
2024-02-08T02:58:06.013Z,100.00
2024-02-08T03:00:35.952Z,100.00
2024-02-08T03:03:08.901Z,100.00
2024-02-08T03:05:36.595Z,100.00
2024-02-08T03:08:06.950Z,100.00
2024-02-08T03:10:35.297Z,100.00
2024-02-08T03:13:02.174Z,100.00
2024-02-08T03:15:29.108Z,100.00
2024-02-08T03:17:56.117Z,100.00
2024-02-08T03:20:30.855Z,100.00
2024-02-08T03:22:58.105Z,100.00
2024-02-08T03:25:25.840Z,100.00
2024-02-08T03:27:52.975Z,100.00
2024-02-08T03:30:20.993Z,100.00
2024-02-08T03:32:51.692Z,100.00
2024-02-08T03:35:26.705Z,100.00
2024-02-08T03:37:57.260Z,100.00
2024-02-08T03:40:27.278Z,100.00
2024-02-08T03:42:57.200Z,100.00
2024-02-08T03:45:28.861Z,100.00
2024-02-08T03:48:02.458Z,100.00
2024-02-08T03:50:31.115Z,100.00
2024-02-08T03:53:00.725Z,100.00
2024-02-08T03:55:28.952Z,100.00
2024-02-08T03:58:01.571Z,100.00
2024-02-08T04:00:33.825Z,100.00
2024-02-08T04:03:03.935Z,100.00
2024-02-08T04:05:49.565Z,100.00
2024-02-08T04:08:28.527Z,100.00
2024-02-08T04:10:58.471Z,100.00
2024-02-08T04:13:44.749Z,100.00
2024-02-08T04:16:30.807Z,100.00
2024-02-08T04:19:17.967Z,100.00
2024-02-08T04:22:03.804Z,100.00
2024-02-08T04:24:49.372Z,100.00
2024-02-08T04:27:51.671Z,100.00
2024-02-08T04:30:37.442Z,100.00
2024-02-08T04:33:23.350Z,100.00
2024-02-08T04:36:09.220Z,100.00
2024-02-08T04:38:54.650Z,100.00
2024-02-08T04:41:40.295Z,100.00
2024-02-08T04:44:25.881Z,100.00
2024-02-08T04:47:12.474Z,100.00
2024-02-08T04:49:59.667Z,100.00
2024-02-08T04:52:45.116Z,100.00
2024-02-08T04:55:12.003Z,100.00
2024-02-08T04:57:40.572Z,100.00
2024-02-08T05:00:14.048Z,100.00
2024-02-08T05:02:41.722Z,100.00
2024-02-08T05:05:12.882Z,100.00
2024-02-08T05:07:39.917Z,100.00
2024-02-08T05:10:10.010Z,100.00
2024-02-08T05:12:37.285Z,100.00
2024-02-08T05:15:07.906Z,100.00
2024-02-08T05:17:35.071Z,100.00
2024-02-08T05:20:02.284Z,100.00
2024-02-08T05:22:29.326Z,100.00
2024-02-08T05:24:56.266Z,100.00
2024-02-08T05:27:24.359Z,100.00
2024-02-08T05:29:51.244Z,100.00
2024-02-08T05:32:23.984Z,100.00
2024-02-08T05:34:52.151Z,100.00
2024-02-08T05:37:19.229Z,100.00
2024-02-08T05:39:49.163Z,100.00
2024-02-08T05:42:16.129Z,100.00
2024-02-08T05:44:46.510Z,100.00
2024-02-08T05:47:16.322Z,100.00
2024-02-08T05:49:50.217Z,100.00
2024-02-08T05:52:17.831Z,100.00
2024-02-08T05:54:48.009Z,100.00
2024-02-08T05:57:15.303Z,100.00
2024-02-08T05:59:46.290Z,100.00
2024-02-08T06:02:24.688Z,100.00
2024-02-08T06:05:01.634Z,100.00
2024-02-08T06:07:32.248Z,100.00
2024-02-08T06:10:16.188Z,100.00
2024-02-08T06:12:53.555Z,100.00
2024-02-08T06:15:26.920Z,100.00
2024-02-08T06:18:06.029Z,100.00
2024-02-08T06:20:43.600Z,100.00
2024-02-08T06:23:40.093Z,100.00
2024-02-08T06:26:12.798Z,100.00
2024-02-08T06:28:48.134Z,100.00
2024-02-08T06:31:18.996Z,100.00
2024-02-08T06:34:05.688Z,100.00
2024-02-08T06:36:35.592Z,99.66
2024-02-08T06:39:21.949Z,99.41
2024-02-08T06:41:54.128Z,98.63
2024-02-08T06:44:40.110Z,98.45
2024-02-08T06:47:19.669Z,98.41
2024-02-08T06:50:05.156Z,97.54
2024-02-08T06:52:51.143Z,97.26
2024-02-08T06:55:36.738Z,96.84
2024-02-08T06:58:22.646Z,96.78
2024-02-08T07:01:08.570Z,96.88
2024-02-08T07:03:54.186Z,97.22
2024-02-08T07:06:40.011Z,95.79
2024-02-08T07:09:25.627Z,95.61
2024-02-08T07:12:11.431Z,94.59
2024-02-08T07:14:57.057Z,95.35
2024-02-08T07:17:42.448Z,94.52
2024-02-08T07:20:28.814Z,92.69
2024-02-08T07:23:18.789Z,93.21
2024-02-08T07:26:04.174Z,92.55
2024-02-08T07:28:50.122Z,93.10
2024-02-08T07:31:35.687Z,93.94
2024-02-08T07:34:21.544Z,92.89
2024-02-08T07:37:07.238Z,91.72
2024-02-08T07:39:37.342Z,90.83
2024-02-08T07:42:14.008Z,91.35
2024-02-08T07:44:46.855Z,92.16
2024-02-08T07:47:14.217Z,91.08
2024-02-08T07:49:44.760Z,91.09
2024-02-08T07:52:22.116Z,91.59
2024-02-08T07:55:15.766Z,91.66
2024-02-08T07:58:01.237Z,92.21
2024-02-08T08:00:48.582Z,93.26
2024-02-08T08:03:19.137Z,91.04
2024-02-08T08:05:46.946Z,90.83
2024-02-08T08:08:37.555Z,91.12
2024-02-08T08:11:06.672Z,93.06
2024-02-08T08:13:53.648Z,91.42
2024-02-08T08:16:30.157Z,91.93
2024-02-08T08:19:10.263Z,91.96
2024-02-08T08:22:01.184Z,91.23
2024-02-08T08:24:28.194Z,90.87
2024-02-08T08:27:08.415Z,90.39
2024-02-08T08:29:46.666Z,91.06
2024-02-08T08:32:37.789Z,91.46
2024-02-08T08:35:24.728Z,92.92
2024-02-08T08:38:10.824Z,92.41
2024-02-08T08:40:41.618Z,92.81
2024-02-08T08:43:20.762Z,91.73
2024-02-08T08:45:54.847Z,89.86
2024-02-08T08:48:22.435Z,91.07
2024-02-08T08:50:59.342Z,90.88
2024-02-08T08:53:30.044Z,89.60
2024-02-08T08:55:57.545Z,88.60
2024-02-08T08:58:40.278Z,88.31
2024-02-08T09:01:17.907Z,87.94
2024-02-08T09:04:22.458Z,87.61
2024-02-08T09:06:50.003Z,87.30
2024-02-08T09:09:29.329Z,86.73
2024-02-08T09:11:59.435Z,85.89
2024-02-08T09:14:31.439Z,86.08
2024-02-08T09:16:59.217Z,86.30
2024-02-08T09:19:29.644Z,85.31
2024-02-08T09:22:04.395Z,85.11
2024-02-08T09:24:43.303Z,85.59
2024-02-08T09:27:18.512Z,86.96
2024-02-08T09:29:57.436Z,88.83
2024-02-08T09:32:43.607Z,88.75
2024-02-08T09:35:14.588Z,93.30
2024-02-08T09:37:48.514Z,95.89
2024-02-08T09:40:41.904Z,97.22
2024-02-08T09:43:19.061Z,97.99
2024-02-08T09:45:47.812Z,97.77
2024-02-08T09:48:26.644Z,99.09
2024-02-08T09:51:12.765Z,99.94
2024-02-08T09:53:41.500Z,99.32
2024-02-08T09:56:26.542Z,99.64
2024-02-08T09:59:10.489Z,98.84
2024-02-08T10:01:45.721Z,99.50
2024-02-08T10:04:17.928Z,99.18
2024-02-08T10:06:57.332Z,100.00
2024-02-08T10:09:48.485Z,99.07
2024-02-08T10:12:30.062Z,99.15
2024-02-08T10:15:01.679Z,99.65
2024-02-08T10:17:51.746Z,99.46
2024-02-08T10:20:22.360Z,98.83
2024-02-08T10:22:58.276Z,100.00
2024-02-08T10:25:45.058Z,100.00
2024-02-08T10:28:19.443Z,99.52
2024-02-08T10:30:47.263Z,98.26
2024-02-08T10:33:16.809Z,97.93
2024-02-08T10:35:44.449Z,97.15
2024-02-08T10:38:32.060Z,98.11
2024-02-08T10:40:59.611Z,98.63
2024-02-08T10:43:38.828Z,99.50
2024-02-08T10:46:17.470Z,100.00
2024-02-08T10:48:45.129Z,97.62
2024-02-08T10:51:13.397Z,96.89
2024-02-08T10:53:44.766Z,97.66
2024-02-08T10:56:16.068Z,97.83
2024-02-08T10:58:56.937Z,96.63
2024-02-08T11:01:34.552Z,96.68
2024-02-08T11:04:30.520Z,96.50
2024-02-08T11:07:18.620Z,95.64
2024-02-08T11:09:46.291Z,95.06
2024-02-08T11:12:24.687Z,96.15
2024-02-08T11:14:58.232Z,96.28
2024-02-08T11:17:26.937Z,95.41
2024-02-08T11:20:00.204Z,97.60
2024-02-08T11:22:41.618Z,98.87
2024-02-08T11:25:21.587Z,98.17
2024-02-08T11:27:52.738Z,98.56
2024-02-08T11:30:34.178Z,99.60
2024-02-08T11:33:05.264Z,99.19
2024-02-08T11:35:33.146Z,98.28
2024-02-08T11:38:11.281Z,96.89
2024-02-08T11:40:38.429Z,96.62
2024-02-08T11:43:09.165Z,98.40
2024-02-08T11:45:36.753Z,99.66
2024-02-08T11:48:10.271Z,99.37
2024-02-08T11:50:41.117Z,99.19
2024-02-08T11:53:08.069Z,99.46
2024-02-08T11:55:35.134Z,100.00
2024-02-08T11:58:07.121Z,100.00
2024-02-08T12:00:46.679Z,100.00
2024-02-08T12:03:17.864Z,100.00
2024-02-08T12:05:52.912Z,100.00
2024-02-08T12:08:20.526Z,100.00
2024-02-08T12:10:51.753Z,100.00
2024-02-08T12:13:27.750Z,100.00
2024-02-08T12:15:58.524Z,100.00
2024-02-08T12:18:28.598Z,100.00
2024-02-08T12:20:56.650Z,100.00
2024-02-08T12:23:32.201Z,100.00
2024-02-08T12:26:02.913Z,100.00
2024-02-08T12:28:35.816Z,100.00
2024-02-08T12:31:02.941Z,100.00
2024-02-08T12:33:30.461Z,100.00
2024-02-08T12:35:59.510Z,100.00
2024-02-08T12:38:27.289Z,100.00
2024-02-08T12:40:56.182Z,100.00
2024-02-08T12:43:23.315Z,100.00
2024-02-08T12:45:55.228Z,100.00
2024-02-08T12:48:22.380Z,100.00
2024-02-08T12:50:58.754Z,100.00
2024-02-08T12:53:25.756Z,100.00
2024-02-08T12:55:52.664Z,100.00
2024-02-08T12:58:19.768Z,100.00
2024-02-08T13:00:59.641Z,100.00
2024-02-08T13:03:27.733Z,100.00
2024-02-08T13:05:54.913Z,100.00
2024-02-08T13:08:22.678Z,100.00
2024-02-08T13:10:56.981Z,100.00
2024-02-08T13:13:27.418Z,100.00
2024-02-08T13:16:00.554Z,100.00
2024-02-08T13:18:31.233Z,100.00
2024-02-08T13:20:58.725Z,100.00
2024-02-08T13:23:26.075Z,100.00
2024-02-08T13:25:58.284Z,100.00
2024-02-08T13:28:25.964Z,100.00
2024-02-08T13:30:57.397Z,100.00
2024-02-08T13:33:24.551Z,100.00
2024-02-08T13:35:55.106Z,100.00
2024-02-08T13:38:26.247Z,100.00
2024-02-08T13:41:00.211Z,100.00
2024-02-08T13:43:31.574Z,100.00
2024-02-08T13:45:59.846Z,100.00
2024-02-08T13:48:30.997Z,100.00
2024-02-08T13:50:59.338Z,100.00
2024-02-08T13:53:29.587Z,100.00
2024-02-08T13:55:57.035Z,100.00
2024-02-08T13:58:29.688Z,100.00
2024-02-08T14:00:59.545Z,100.00
2024-02-08T14:05:57.519Z,100.00
2024-02-08T14:08:28.925Z,100.00
2024-02-08T14:10:56.522Z,100.00
2024-02-08T14:13:36.704Z,100.00
2024-02-08T14:16:16.654Z,100.00
2024-02-08T14:18:54.117Z,100.00
2024-02-08T14:21:26.779Z,100.00
2024-02-08T14:24:01.164Z,100.00
2024-02-08T14:26:35.104Z,100.00
2024-02-08T14:29:04.131Z,100.00
2024-02-08T14:31:37.774Z,100.00
2024-02-08T14:34:07.515Z,100.00
2024-02-08T14:36:34.817Z,100.00
2024-02-08T14:39:01.699Z,100.00
2024-02-08T14:41:38.245Z,100.00
2024-02-08T14:44:09.082Z,100.00
2024-02-08T14:46:36.794Z,100.00
2024-02-08T14:49:18.541Z,100.00
2024-02-08T14:51:49.599Z,100.00
2024-02-08T14:54:20.341Z,100.00
2024-02-08T14:57:05.340Z,100.00
2024-02-08T14:59:46.726Z,100.00
2024-02-08T15:02:20.641Z,100.00
2024-02-08T15:04:54.160Z,100.00
2024-02-08T15:07:57.367Z,100.00
2024-02-08T15:10:44.396Z,100.00
2024-02-08T15:13:19.999Z,100.00
2024-02-08T15:15:51.650Z,100.00
2024-02-08T15:18:31.380Z,100.00
2024-02-08T15:20:59.035Z,100.00
2024-02-08T15:23:44.794Z,100.00
2024-02-08T15:26:14.766Z,100.00
2024-02-08T15:28:46.812Z,100.00
2024-02-08T15:31:17.571Z,100.00
2024-02-08T15:33:59.410Z,100.00
2024-02-08T15:36:33.805Z,100.00
2024-02-08T15:39:19.486Z,100.00
2024-02-08T15:41:52.836Z,100.00
2024-02-08T15:44:35.158Z,100.00
2024-02-08T15:47:12.123Z,100.00
2024-02-08T15:49:57.818Z,100.00
2024-02-08T15:52:35.625Z,100.00
2024-02-08T15:55:16.259Z,100.00
2024-02-08T15:57:55.520Z,100.00
2024-02-08T16:00:46.211Z,100.00
2024-02-08T16:03:19.286Z,100.00
2024-02-08T16:05:48.014Z,100.00
2024-02-08T16:08:15.419Z,100.00
2024-02-08T16:10:45.983Z,100.00
2024-02-08T16:13:15.027Z,100.00
2024-02-08T16:15:57.168Z,100.00
2024-02-08T16:18:26.955Z,100.00
2024-02-08T16:20:55.948Z,100.00
2024-02-08T16:23:28.198Z,100.00
2024-02-08T16:26:14.193Z,100.00
2024-02-08T16:28:51.110Z,100.00
2024-02-08T16:31:18.883Z,100.00
2024-02-08T16:33:49.822Z,100.00
2024-02-08T16:36:31.149Z,100.00
2024-02-08T16:39:29.027Z,100.00
2024-02-08T16:42:02.430Z,100.00
2024-02-08T16:44:39.063Z,100.00
2024-02-08T16:47:28.689Z,100.00
2024-02-08T16:49:59.799Z,100.00
2024-02-08T16:52:36.218Z,100.00
2024-02-08T16:55:13.496Z,100.00
2024-02-08T16:57:41.043Z,100.00
2024-02-08T17:00:27.904Z,100.00
2024-02-08T17:03:19.002Z,100.00
2024-02-08T17:05:57.327Z,100.00
2024-02-08T17:08:31.174Z,100.00
2024-02-08T17:11:16.553Z,100.00
2024-02-08T17:13:52.100Z,100.00
2024-02-08T17:16:31.777Z,100.00
2024-02-08T17:19:17.403Z,100.00
2024-02-08T17:21:53.600Z,100.00
2024-02-08T17:24:31.189Z,100.00
2024-02-08T17:27:01.105Z,100.00
2024-02-08T17:29:36.983Z,100.00
2024-02-08T17:32:09.190Z,100.00
2024-02-08T17:34:40.765Z,100.00
2024-02-08T17:37:07.788Z,100.00
2024-02-08T17:39:41.518Z,100.00
2024-02-08T17:42:09.877Z,100.00
2024-02-08T17:44:41.505Z,100.00
2024-02-08T17:47:09.165Z,100.00
2024-02-08T17:49:39.375Z,100.00
2024-02-08T17:52:07.850Z,100.00
2024-02-08T17:54:46.508Z,100.00
2024-02-08T17:57:24.034Z,100.00
2024-02-08T18:00:01.036Z,100.00
2024-02-08T18:02:29.233Z,100.00
2024-02-08T18:05:02.200Z,100.00
2024-02-08T18:07:31.559Z,100.00
2024-02-08T18:10:18.238Z,100.00
2024-02-08T18:12:53.326Z,100.00
2024-02-08T18:15:25.617Z,100.00
2024-02-08T18:17:56.693Z,100.00
2024-02-08T18:20:24.497Z,100.00
2024-02-08T18:22:51.828Z,100.00
2024-02-08T18:25:31.374Z,100.00
2024-02-08T18:28:04.623Z,100.00
2024-02-08T18:30:31.706Z,100.00
2024-02-08T18:32:59.278Z,100.00
2024-02-08T18:35:27.093Z,100.00
2024-02-08T18:37:54.526Z,100.00
2024-02-08T18:40:25.247Z,100.00
2024-02-08T18:42:56.196Z,100.00
2024-02-08T18:45:26.487Z,100.00
2024-02-08T18:47:58.808Z,100.00
2024-02-08T18:50:25.988Z,100.00
2024-02-08T18:52:53.761Z,100.00
2024-02-08T18:55:34.820Z,100.00
2024-02-08T18:58:02.530Z,100.00
2024-02-08T19:00:31.426Z,100.00
2024-02-08T19:03:02.373Z,100.00
2024-02-08T19:05:29.820Z,100.00
2024-02-08T19:07:59.762Z,100.00
2024-02-08T19:10:30.571Z,100.00
2024-02-08T19:12:58.080Z,100.00
2024-02-08T19:15:25.312Z,100.00
2024-02-08T19:18:00.045Z,100.00
2024-02-08T19:20:33.710Z,100.00
2024-02-08T19:23:06.402Z,100.00
2024-02-08T19:25:36.532Z,100.00
2024-02-08T19:28:06.632Z,100.00
2024-02-08T19:30:34.288Z,100.00
2024-02-08T19:33:06.197Z,100.00
2024-02-08T19:35:35.060Z,100.00
2024-02-08T19:38:05.114Z,100.00
2024-02-08T19:40:32.863Z,100.00
2024-02-08T19:43:06.308Z,100.00
2024-02-08T19:45:33.591Z,100.00
2024-02-08T19:48:01.877Z,100.00
2024-02-08T19:50:32.496Z,100.00
2024-02-08T19:52:59.549Z,100.00
2024-02-08T19:55:34.805Z,100.00
2024-02-08T19:58:09.068Z,100.00
2024-02-08T20:00:38.767Z,100.00
2024-02-08T20:03:09.521Z,100.00
2024-02-08T20:05:41.336Z,100.00
2024-02-08T20:08:11.563Z,100.00
2024-02-08T20:10:40.746Z,100.00
2024-02-08T20:13:13.055Z,100.00
2024-02-08T20:15:41.077Z,100.00
2024-02-08T20:18:09.483Z,100.00
2024-02-08T20:20:38.163Z,100.00
2024-02-08T20:23:11.506Z,100.00
2024-02-08T20:25:40.587Z,100.00
2024-02-08T20:28:08.070Z,100.00
2024-02-08T20:30:39.768Z,100.00
2024-02-08T20:33:07.209Z,100.00
2024-02-08T20:35:35.017Z,100.00
2024-02-08T20:38:06.495Z,100.00
2024-02-08T20:40:35.174Z,100.00
2024-02-08T20:43:06.976Z,100.00
2024-02-08T20:45:36.094Z,100.00
2024-02-08T20:48:09.414Z,100.00
2024-02-08T20:50:40.466Z,100.00
2024-02-08T20:53:09.548Z,100.00
2024-02-08T20:55:39.966Z,100.00
2024-02-08T20:58:15.975Z,100.00
2024-02-08T21:00:43.941Z,100.00
2024-02-08T21:03:12.521Z,100.00
2024-02-08T21:05:43.284Z,100.00
2024-02-08T21:08:10.416Z,100.00
2024-02-08T21:10:42.343Z,100.00
2024-02-08T21:13:12.454Z,100.00
2024-02-08T21:15:44.634Z,100.00
2024-02-08T21:18:16.394Z,100.00
2024-02-08T21:20:43.740Z,100.00
2024-02-08T21:23:10.781Z,100.00
2024-02-08T21:25:41.665Z,100.00
2024-02-08T21:28:12.133Z,100.00
2024-02-08T21:30:46.753Z,100.00
2024-02-08T21:33:14.922Z,100.00
2024-02-08T21:35:46.567Z,100.00
2024-02-08T21:38:14.179Z,100.00
2024-02-08T21:40:45.571Z,100.00
2024-02-08T21:43:13.149Z,100.00
2024-02-08T21:45:44.253Z,100.00
2024-02-08T21:48:17.396Z,100.00
2024-02-08T21:50:48.911Z,100.00
2024-02-08T21:53:16.449Z,100.00
2024-02-08T21:55:46.299Z,100.00
2024-02-08T21:58:13.755Z,100.00
2024-02-08T22:00:44.359Z,100.00
2024-02-08T22:03:11.508Z,100.00
2024-02-08T22:05:38.951Z,100.00
2024-02-08T22:08:06.753Z,100.00
2024-02-08T22:10:35.786Z,100.00
2024-02-08T22:13:07.206Z,100.00
2024-02-08T22:15:34.885Z,100.00
2024-02-08T22:18:05.458Z,100.00
2024-02-08T22:20:34.630Z,100.00
2024-02-08T22:23:01.564Z,100.00
2024-02-08T22:25:28.607Z,100.00
2024-02-08T22:27:56.010Z,100.00
2024-02-08T22:30:23.025Z,100.00
2024-02-08T22:32:53.683Z,100.00
2024-02-08T22:35:20.754Z,100.00
2024-02-08T22:37:49.810Z,100.00
2024-02-08T22:40:19.696Z,100.00
2024-02-08T22:42:47.227Z,100.00
2024-02-08T22:45:14.519Z,100.00
2024-02-08T22:47:46.376Z,100.00
2024-02-08T22:50:14.159Z,100.00
2024-02-08T22:52:52.015Z,100.00
2024-02-08T22:55:23.114Z,100.00
2024-02-08T22:57:51.647Z,100.00
2024-02-08T23:00:24.667Z,100.00
2024-02-08T23:03:08.417Z,100.00
2024-02-08T23:05:40.976Z,100.00
2024-02-08T23:08:12.301Z,100.00
2024-02-08T23:10:39.728Z,100.00
2024-02-08T23:13:14.704Z,100.00
2024-02-08T23:15:47.023Z,100.00
2024-02-08T23:18:20.351Z,100.00
2024-02-08T23:20:47.803Z,100.00
2024-02-08T23:23:14.840Z,100.00
2024-02-08T23:25:41.923Z,100.00
2024-02-08T23:28:10.305Z,100.00
2024-02-08T23:30:45.030Z,100.00
2024-02-08T23:33:14.129Z,100.00
2024-02-08T23:35:41.738Z,100.00
2024-02-08T23:38:08.902Z,100.00
2024-02-08T23:40:36.173Z,100.00
2024-02-08T23:43:08.888Z,100.00
2024-02-08T23:45:40.566Z,100.00
2024-02-08T23:48:09.045Z,100.00
2024-02-08T23:50:36.099Z,100.00
2024-02-08T23:53:03.225Z,100.00
2024-02-08T23:55:30.528Z,100.00
2024-02-08T23:57:57.641Z,100.00
